Time;durP1;ratioP1;P1;durP2;ratioP2;P2;SDS_P1;SDS_P2;PMS_P1;PMS_P2;Temp;Humidity;BMP_temperature;BMP_pressure;BME280_temperature;BME280_humidity;BME280_pressure;Samples;Min_cycle;Max_cycle;Signal;HPM_P1;HPM_P2
2023/09/27 00:01:48;;;;;;;7.10;5.38;;;;;;;19.25;91.21;101284.28;4898761;29;20420;-71
2023/09/27 00:04:16;;;;;;;10.15;5.45;;;;;;;19.13;91.47;101282.13;4897878;29;20048;-70
2023/09/27 00:06:44;;;;;;;7.57;4.82;;;;;;;19.18;91.43;101279.22;4899137;29;20056;-70
2023/09/27 00:09:12;;;;;;;7.93;5.20;;;;;;;19.19;91.11;101266.16;4880435;29;20060;-71
2023/09/27 00:11:40;;;;;;;10.75;4.95;;;;;;;19.19;90.82;101274.47;4880207;29;20385;-71
2023/09/27 00:14:07;;;;;;;7.78;5.18;;;;;;;19.14;90.49;101274.59;4892014;29;20059;-71
2023/09/27 00:16:35;;;;;;;8.02;5.25;;;;;;;18.98;92.71;101269.50;4899202;29;20055;-71
2023/09/27 00:19:05;;;;;;;7.00;4.78;;;;;;;19.00;91.71;101274.69;4898633;29;20044;-71
2023/09/27 00:21:33;;;;;;;6.47;5.00;;;;;;;18.92;92.48;101266.03;4893017;29;20049;-70
2023/09/27 00:24:01;;;;;;;10.10;5.55;;;;;;;18.93;92.33;101262.09;4891122;29;20060;-71
2023/09/27 00:26:28;;;;;;;5.35;4.60;;;;;;;19.00;91.90;101269.97;4899171;29;20087;-71
2023/09/27 00:28:56;;;;;;;6.50;4.43;;;;;;;18.92;91.96;101262.44;4898319;29;20048;-71
2023/09/27 00:31:24;;;;;;;6.10;4.70;;;;;;;18.96;91.41;101270.94;4881983;29;20048;-70
2023/09/27 00:33:52;;;;;;;6.78;4.72;;;;;;;19.00;91.46;101272.75;4888552;29;20049;-71
2023/09/27 00:36:19;;;;;;;7.18;4.35;;;;;;;18.97;90.79;101278.91;4878865;29;20057;-70
2023/09/27 00:38:47;;;;;;;6.68;5.05;;;;;;;18.94;91.62;101271.25;4898333;29;20074;-70
2023/09/27 00:41:15;;;;;;;7.60;5.32;;;;;;;19.01;91.81;101271.59;4898211;29;20064;-70
2023/09/27 00:43:43;;;;;;;9.05;4.70;;;;;;;18.80;92.03;101272.19;4882084;29;20055;-70
2023/09/27 00:46:14;;;;;;;5.47;4.72;;;;;;;18.77;92.91;101280.31;4870137;29;20404;-71
2023/09/27 00:48:43;;;;;;;7.07;5.28;;;;;;;18.86;91.30;101277.59;4879992;29;20516;-71
2023/09/27 00:51:12;;;;;;;6.32;4.68;;;;;;;18.88;91.05;101272.53;4883888;29;20388;-70
2023/09/27 00:53:42;;;;;;;5.90;4.50;;;;;;;18.89;90.99;101272.22;4881327;29;20079;-71
2023/09/27 00:56:10;;;;;;;6.40;4.82;;;;;;;18.94;90.06;101271.25;4894665;29;20488;-70
2023/09/27 00:58:39;;;;;;;9.90;4.68;;;;;;;18.93;90.32;101269.63;4878774;29;20064;-70
2023/09/27 01:01:07;;;;;;;6.47;4.10;;;;;;;18.92;89.84;101263.25;4894088;29;20048;-70
2023/09/27 01:03:36;;;;;;;9.13;4.88;;;;;;;18.90;90.41;101256.38;4898082;29;20396;-71
2023/09/27 01:06:04;;;;;;;6.50;4.63;;;;;;;18.82;91.76;101257.97;4898053;29;20067;-71
2023/09/27 01:08:32;;;;;;;5.53;4.85;;;;;;;18.80;91.12;101263.88;4881413;29;20057;-71
2023/09/27 01:11:01;;;;;;;6.95;4.72;;;;;;;18.78;89.85;101257.81;4880785;29;20057;-70
2023/09/27 01:13:29;;;;;;;7.85;4.60;;;;;;;18.89;88.69;101252.81;4882214;29;20057;-70
2023/09/27 01:15:58;;;;;;;6.22;4.88;;;;;;;18.90;89.61;101253.63;4898260;29;20071;-70
2023/09/27 01:18:27;;;;;;;5.50;4.45;;;;;;;18.90;88.92;101248.06;4880949;29;20056;-70
2023/09/27 01:20:55;;;;;;;9.57;4.70;;;;;;;18.86;88.21;101253.44;4883594;29;20049;-71
2023/09/27 01:23:23;;;;;;;10.13;4.68;;;;;;;19.01;87.87;101246.63;4897241;29;20064;-71
2023/09/27 01:25:58;;;;;;;6.28;4.07;;;;;;;18.98;87.08;101246.47;4868728;29;20052;-71
2023/09/27 01:28:27;;;;;;;7.20;4.43;;;;;;;18.89;87.81;101246.44;4897989;29;20059;-71
2023/09/27 01:30:54;;;;;;;6.75;4.57;;;;;;;18.94;87.84;101249.91;4897332;29;20045;-70
2023/09/27 01:33:22;;;;;;;10.25;4.32;;;;;;;18.87;88.24;101243.19;4880691;29;20056;-71
2023/09/27 01:35:51;;;;;;;7.57;4.72;;;;;;;18.75;88.04;101247.38;4887635;29;20515;-70
2023/09/27 01:38:19;;;;;;;7.10;4.43;;;;;;;18.77;88.39;101242.31;4861667;29;20056;-71
2023/09/27 01:40:47;;;;;;;5.20;4.20;;;;;;;18.88;86.66;101244.81;4879065;29;20053;-71
2023/09/27 01:43:14;;;;;;;6.20;4.57;;;;;;;18.84;87.14;101244.63;4878147;29;20496;-70
2023/09/27 01:45:42;;;;;;;6.03;4.00;;;;;;;18.78;87.68;101251.47;4869335;29;20053;-71
2023/09/27 01:48:11;;;;;;;7.00;4.30;;;;;;;18.85;87.15;101248.22;4886587;29;20052;-71
2023/09/27 01:50:38;;;;;;;6.50;4.28;;;;;;;18.85;86.69;101245.44;4862273;29;20056;-71
2023/09/27 01:53:06;;;;;;;4.50;3.70;;;;;;;18.83;86.35;101242.19;4862441;29;20041;-70
2023/09/27 01:55:34;;;;;;;4.97;4.30;;;;;;;18.83;86.09;101247.72;4878498;29;20056;-71
2023/09/27 01:58:02;;;;;;;5.70;4.07;;;;;;;18.79;86.00;101237.28;4870845;29;20056;-71
2023/09/27 02:00:31;;;;;;;5.38;3.80;;;;;;;18.77;86.53;101239.53;4880494;29;20051;-70
2023/09/27 02:03:00;;;;;;;8.27;4.30;;;;;;;18.71;87.05;101235.28;4896755;29;20500;-71
2023/09/27 02:05:30;;;;;;;6.32;3.92;;;;;;;18.78;86.27;101241.16;4880047;29;20052;-70
2023/09/27 02:07:58;;;;;;;6.85;4.35;;;;;;;18.75;86.29;101244.59;4875558;29;20416;-70
2023/09/27 02:10:26;;;;;;;6.30;4.38;;;;;;;18.76;85.29;101250.94;4882748;29;20065;-71
2023/09/27 02:12:54;;;;;;;6.97;4.40;;;;;;;18.75;84.45;101250.16;4895466;29;20133;-70
2023/09/27 02:15:22;;;;;;;5.97;4.05;;;;;;;18.70;86.31;101250.28;4876275;29;20055;-70
2023/09/27 02:17:50;;;;;;;4.63;4.00;;;;;;;18.73;85.85;101246.06;4879123;29;20060;-71
2023/09/27 02:20:18;;;;;;;7.93;4.30;;;;;;;18.66;87.58;101238.19;4877464;29;20052;-71
2023/09/27 02:22:47;;;;;;;8.60;4.00;;;;;;;18.59;86.69;101238.66;4894812;29;20064;-71
2023/09/27 02:25:16;;;;;;;8.52;4.30;;;;;;;18.53;86.38;101235.19;4901738;29;20069;-70
2023/09/27 02:27:44;;;;;;;8.43;4.25;;;;;;;18.50;86.59;101240.56;4882902;29;20416;-70
2023/09/27 02:30:14;;;;;;;4.85;4.03;;;;;;;18.48;86.11;101238.09;4894613;29;20067;-70
2023/09/27 02:32:43;;;;;;;4.85;4.15;;;;;;;18.43;87.69;101237.44;4895830;29;20064;-70
2023/09/27 02:35:18;;;;;;;11.43;4.30;;;;;;;18.45;86.89;101244.28;4897012;29;20049;-70
2023/09/27 02:37:47;;;;;;;6.57;3.92;;;;;;;18.44;86.51;101245.44;4896003;29;20063;-70
2023/09/27 02:40:17;;;;;;;6.32;4.57;;;;;;;18.40;87.38;101249.97;4879925;29;20053;-71
2023/09/27 02:42:48;;;;;;;5.78;4.25;;;;;;;18.40;88.56;101241.66;4877842;29;20045;-70
2023/09/27 02:45:16;;;;;;;7.60;4.50;;;;;;;18.46;86.80;101251.47;4861261;29;20056;-70
2023/09/27 02:47:45;;;;;;;8.30;4.53;;;;;;;18.51;85.95;101247.72;4878376;29;20056;-70
2023/09/27 02:50:15;;;;;;;4.57;3.90;;;;;;;18.55;85.75;101248.75;4877630;29;20080;-70
2023/09/27 02:52:43;;;;;;;6.00;4.10;;;;;;;18.45;86.03;101247.06;4878174;29;20048;-70
2023/09/27 02:55:12;;;;;;;6.57;4.40;;;;;;;18.45;86.47;101249.84;4877080;29;20061;-70
2023/09/27 02:57:42;;;;;;;6.53;4.47;;;;;;;18.51;85.86;101243.03;4877640;29;20057;-71
2023/09/27 03:00:11;;;;;;;7.15;4.32;;;;;;;18.46;86.96;101239.56;4880311;29;20049;-71
2023/09/27 03:02:42;;;;;;;7.15;4.32;;;;;;;18.44;87.33;101245.44;4846593;29;20409;-71
2023/09/27 03:05:10;;;;;;;6.90;4.07;;;;;;;18.38;86.31;101241.16;4862644;29;20501;-70
2023/09/27 03:07:38;;;;;;;5.45;4.28;;;;;;;18.39;86.11;101234.47;4862988;29;20053;-70
2023/09/27 03:10:10;;;;;;;7.38;3.90;;;;;;;18.32;87.14;101231.34;4846042;29;20053;-70
2023/09/27 03:12:39;;;;;;;6.28;4.15;;;;;;;18.26;87.72;101237.03;4862705;29;20061;-71
2023/09/27 03:15:10;;;;;;;5.80;4.15;;;;;;;18.29;86.87;101231.97;4846470;29;20044;-70
2023/09/27 03:17:42;;;;;;;9.25;4.50;;;;;;;18.27;86.73;101232.28;4862479;29;20050;-70
2023/09/27 03:20:16;;;;;;;6.65;4.55;;;;;;;18.33;85.90;101236.56;4846109;29;20058;-70
2023/09/27 03:22:46;;;;;;;7.82;4.35;;;;;;;18.25;86.46;101240.09;4862719;29;20076;-70
2023/09/27 03:25:17;;;;;;;6.53;4.38;;;;;;;18.22;86.41;101235.19;4862185;29;20386;-70
2023/09/27 03:27:46;;;;;;;8.48;4.10;;;;;;;18.12;87.99;101236.25;4846059;29;20062;-70
2023/09/27 03:30:14;;;;;;;8.32;4.22;;;;;;;18.14;86.55;101239.56;4862357;29;20057;-70
2023/09/27 03:32:43;;;;;;;7.35;4.45;;;;;;;18.16;86.71;101236.44;4845518;29;20054;-70
2023/09/27 03:35:11;;;;;;;6.45;4.55;;;;;;;18.12;87.90;101241.81;4861236;29;20061;-70
2023/09/27 03:37:39;;;;;;;8.80;4.85;;;;;;;18.09;87.49;101239.69;4862305;29;20397;-70
2023/09/27 03:40:13;;;;;;;9.18;4.30;;;;;;;18.03;87.56;101238.13;4845451;29;20060;-70
2023/09/27 03:42:44;;;;;;;6.03;4.53;;;;;;;18.06;87.80;101238.34;4862205;29;20053;-70
2023/09/27 03:45:14;;;;;;;6.00;4.65;;;;;;;18.03;88.82;101240.91;4862149;29;20497;-70
2023/09/27 03:47:44;;;;;;;4.78;4.18;;;;;;;17.99;90.43;101238.75;4845507;29;20516;-70
2023/09/27 03:50:17;;;;;;;6.80;3.90;;;;;;;18.07;88.71;101233.63;4830533;29;20056;-71
2023/09/27 03:52:45;;;;;;;11.48;5.07;;;;;;;18.03;88.30;101238.13;4862007;29;20061;-71
2023/09/27 03:55:13;;;;;;;7.32;4.30;;;;;;;17.96;89.70;101233.84;4861711;29;20056;-70
2023/09/27 03:57:41;;;;;;;7.13;4.65;;;;;;;17.96;88.68;101227.50;4862124;29;20056;-70
2023/09/27 04:00:14;;;;;;;7.97;4.13;;;;;;;18.01;88.55;101241.22;4844926;29;20532;-71
2023/09/27 04:02:46;;;;;;;5.28;4.45;;;;;;;18.00;88.20;101240.38;4860797;29;20069;-71
2023/09/27 04:05:16;;;;;;;6.80;4.30;;;;;;;18.05;90.36;101233.09;4860591;29;20057;-70
2023/09/27 04:07:44;;;;;;;9.85;4.57;;;;;;;17.98;88.40;101237.13;4861929;29;20058;-70
2023/09/27 04:10:11;;;;;;;5.50;4.63;;;;;;;17.92;90.46;101235.63;4860413;29;20501;-70
2023/09/27 04:12:39;;;;;;;7.50;4.30;;;;;;;18.07;87.94;101239.16;4862026;29;20064;-70
2023/09/27 04:15:11;;;;;;;7.68;4.40;;;;;;;18.05;88.26;101224.78;4865390;29;20053;-70
2023/09/27 04:17:39;;;;;;;6.43;4.35;;;;;;;18.09;87.50;101236.91;4880068;29;20060;-70
2023/09/27 04:20:13;;;;;;;7.57;3.80;;;;;;;17.98;87.65;101237.13;4880040;29;20060;-70
2023/09/27 04:22:47;;;;;;;6.70;4.32;;;;;;;18.10;87.92;101227.47;4879920;29;20049;-71
2023/09/27 04:25:17;;;;;;;6.80;4.10;;;;;;;18.12;87.88;101241.81;4880490;29;20057;-71
2023/09/27 04:27:49;;;;;;;8.30;4.50;;;;;;;18.10;88.19;101236.56;4879814;29;20057;-71
2023/09/27 04:30:19;;;;;;;8.52;4.43;;;;;;;18.08;87.36;101238.03;4863956;29;20057;-71
2023/09/27 04:32:50;;;;;;;6.57;4.22;;;;;;;18.06;87.75;101243.06;4866528;29;20493;-70
2023/09/27 04:35:19;;;;;;;7.95;4.80;;;;;;;17.94;88.91;101236.09;4880537;29;20500;-70
2023/09/27 04:37:48;;;;;;;8.95;4.32;;;;;;;17.93;89.11;101237.25;4880443;29;20068;-71
2023/09/27 04:40:17;;;;;;;10.07;4.50;;;;;;;17.86;90.29;101243.19;4863122;29;20385;-70
2023/09/27 04:42:46;;;;;;;9.57;4.93;;;;;;;17.89;89.56;101236.22;4861411;29;20053;-70
2023/09/27 04:45:15;;;;;;;5.18;3.83;;;;;;;17.88;88.49;101247.63;4861681;29;20406;-70
2023/09/27 04:47:46;;;;;;;6.80;4.55;;;;;;;17.91;89.25;101247.81;4861362;29;20448;-70
2023/09/27 04:50:14;;;;;;;6.22;4.50;;;;;;;17.90;88.65;101251.72;4861471;29;20068;-70
2023/09/27 04:52:44;;;;;;;5.85;4.03;;;;;;;17.93;88.54;101244.75;4860918;29;20505;-70
2023/09/27 04:55:13;;;;;;;4.85;4.22;;;;;;;17.90;89.35;101242.59;4861055;29;20057;-70
2023/09/27 04:57:41;;;;;;;5.40;3.83;;;;;;;17.94;88.62;101247.19;4868924;29;20056;-70
2023/09/27 05:00:19;;;;;;;7.55;4.57;;;;;;;17.99;88.00;101249.81;4879207;29;20057;-71
2023/09/27 05:02:48;;;;;;;6.85;4.20;;;;;;;17.96;87.64;101252.41;4878438;29;20056;-75
2023/09/27 05:05:17;;;;;;;5.72;4.20;;;;;;;18.01;87.16;101252.28;4879039;29;20060;-76
2023/09/27 05:07:45;;;;;;;15.35;5.22;;;;;;;18.02;87.85;101258.66;4878946;29;20057;-76
2023/09/27 05:10:13;;;;;;;12.25;4.07;;;;;;;17.97;86.89;101251.28;4879521;29;20060;-76
2023/09/27 05:12:41;;;;;;;5.13;3.80;;;;;;;18.03;86.63;101261.09;4878784;29;20061;-77
2023/09/27 05:15:09;;;;;;;7.85;5.43;;;;;;;17.97;86.71;101256.81;4879182;29;20065;-77
2023/09/27 05:17:37;;;;;;;9.48;5.10;;;;;;;18.10;85.74;101249.63;4879418;29;20053;-77
2023/09/27 05:20:10;;;;;;;7.50;4.47;;;;;;;18.08;87.49;101258.22;4879274;29;20404;-77
2023/09/27 05:22:41;;;;;;;10.90;4.45;;;;;;;18.18;86.35;101251.63;4878336;29;20404;-77
2023/09/27 05:25:10;;;;;;;4.53;4.13;;;;;;;18.15;85.70;101255.03;4878786;29;20060;-77
2023/09/27 05:27:39;;;;;;;12.05;4.53;;;;;;;18.15;86.04;101257.81;4871695;29;20053;-77
2023/09/27 05:30:09;;;;;;;10.48;5.47;;;;;;;18.12;87.74;101258.41;4866194;29;20052;-77
2023/09/27 05:32:37;;;;;;;9.98;4.43;;;;;;;18.17;86.88;101258.28;4874178;29;20061;-77
2023/09/27 05:35:06;;;;;;;6.45;3.83;;;;;;;18.20;86.30;101257.69;4869378;29;20053;-77
2023/09/27 05:37:34;;;;;;;14.20;4.32;;;;;;;18.22;87.04;101258.16;4877875;29;20061;-78
2023/09/27 05:40:04;;;;;;;14.30;4.75;;;;;;;18.20;86.45;101257.69;4879098;29;20053;-77
2023/09/27 05:42:33;;;;;;;10.85;4.35;;;;;;;18.26;85.82;101256.41;4878618;29;20053;-77
2023/09/27 05:45:01;;;;;;;12.07;4.90;;;;;;;18.30;86.18;101264.06;4873566;29;20052;-76
2023/09/27 05:47:29;;;;;;;7.15;4.35;;;;;;;18.59;86.07;101271.09;4864863;29;20049;-93
2023/09/27 05:49:57;;;;;;;10.73;4.38;;;;;;;19.01;84.69;101260.50;4833142;29;20106;-91
2023/09/27 05:52:27;;;;;;;9.48;4.40;;;;;;;19.29;82.15;101271.41;4847824;29;20428;-93
2023/09/27 05:54:56;;;;;;;7.78;4.60;;;;;;;19.48;80.82;101281.38;4832999;29;20060;-94
2023/09/27 05:57:24;;;;;;;8.00;4.22;;;;;;;19.78;79.50;101264.94;4831014;29;20516;-94
2023/09/27 05:59:53;;;;;;;8.48;3.58;;;;;;;19.78;79.42;101267.69;4848663;29;20049;-94
2023/09/27 06:02:31;;;;;;;7.70;4.18;;;;;;;19.91;79.75;101259.53;4866850;29;20484;-96
2023/09/27 06:05:00;;;;;;;7.82;3.83;;;;;;;20.07;78.40;101263.47;4858725;29;20056;-95
2023/09/27 06:07:29;;;;;;;12.63;4.35;;;;;;;20.20;78.29;101263.63;4848941;29;20068;-93
2023/09/27 06:09:57;;;;;;;9.75;4.55;;;;;;;20.28;77.93;101271.94;4850159;29;20064;-94
2023/09/27 06:12:26;;;;;;;8.07;4.28;;;;;;;20.24;77.17;101262.63;4864605;29;20060;-96
2023/09/27 06:14:55;;;;;;;5.82;4.00;;;;;;;20.26;77.80;101263.13;4859584;29;20049;-89
2023/09/27 06:17:24;;;;;;;8.02;3.63;;;;;;;20.48;77.55;101266.03;4853171;29;20060;-93
2023/09/27 06:19:53;;;;;;;8.55;4.13;;;;;;;20.49;76.88;101273.22;4862658;29;20045;-95
2023/09/27 06:22:23;;;;;;;9.70;4.07;;;;;;;20.50;77.03;101267.31;4860982;29;20052;-94
2023/09/27 06:24:51;;;;;;;9.30;4.28;;;;;;;20.45;77.36;101275.84;4851396;29;20400;-95
2023/09/27 06:27:20;;;;;;;10.73;3.92;;;;;;;20.47;76.82;101269.97;4836240;29;20049;-95
2023/09/27 06:29:48;;;;;;;10.57;3.92;;;;;;;20.57;76.94;101274.34;4875317;29;20403;-95
2023/09/27 06:32:19;;;;;;;6.68;4.22;;;;;;;20.56;76.80;101281.06;4854302;29;20079;-96
2023/09/27 06:34:52;;;;;;;10.25;4.15;;;;;;;20.72;76.08;101289.66;4858557;29;20061;-96
2023/09/27 06:37:30;;;;;;;7.68;4.60;;;;;;;20.77;75.22;101284.72;4874931;29;20053;-96
2023/09/27 06:40:00;;;;;;;5.15;4.00;;;;;;;20.91;75.65;101292.88;4855317;29;20064;-95
2023/09/27 06:42:30;;;;;;;7.35;4.55;;;;;;;21.01;74.99;101297.25;4856124;29;20045;-96
2023/09/27 06:53:06;;;;;;;10.50;4.28;;;;;;;21.28;75.09;101297.13;5437603;23;20048;-96
2023/09/27 06:57:16;;;;;;;6.47;3.80;;;;;;;21.47;74.58;101307.84;4825705;29;20061;-96
2023/09/27 06:59:52;;;;;;;12.23;4.25;;;;;;;21.56;74.59;101316.94;4796401;29;20053;-96
2023/09/27 07:06:06;;;;;;;12.07;4.30;;;;;;;21.95;72.29;101325.19;4794217;29;20058;-95
2023/09/27 07:08:35;;;;;;;6.20;4.03;;;;;;;21.96;71.76;101309.31;4794906;29;20057;-96
2023/09/27 07:18:00;;;;;;;6.70;3.80;;;;;;;22.42;70.26;101335.31;4961805;23;20029;-78
2023/09/27 07:21:14;;;;;;;5.85;3.95;;;;;;;22.45;69.81;101319.84;4978658;23;21169;-93
2023/09/27 07:23:49;;;;;;;10.77;4.43;;;;;;;22.60;69.83;101329.56;4871450;29;20079;-96
2023/09/27 07:27:10;;;;;;;8.65;3.97;;;;;;;22.79;67.99;101320.66;4785220;29;20039;-96
2023/09/27 07:30:52;;;;;;;6.70;4.00;;;;;;;22.96;67.87;101318.81;4823861;29;20066;-96
2023/09/27 07:33:22;;;;;;;7.55;3.53;;;;;;;23.05;67.02;101322.31;4816976;29;20054;-96
2023/09/27 07:35:52;;;;;;;10.77;4.32;;;;;;;23.09;66.11;101320.47;4809826;29;20103;-96
2023/09/27 07:38:26;;;;;;;7.32;4.18;;;;;;;23.29;65.03;101320.69;4812299;29;20060;-96
2023/09/27 07:40:58;;;;;;;;;;;;;;;23.38;64.25;101322.56;4819765;23;20062;-95
2023/09/27 07:43:38;;;;;;;6.68;4.43;;;;;;;23.46;63.43;101314.06;4866646;29;19934;-96
2023/09/27 07:46:17;;;;;;;5.47;3.67;;;;;;;23.55;62.22;101311.16;4852304;29;20057;-96
2023/09/27 07:49:04;;;;;;;9.05;4.10;;;;;;;23.79;61.30;101322.63;4896314;29;20061;-96
2023/09/27 07:52:13;;;;;;;6.47;3.95;;;;;;;23.88;60.27;101314.91;4858687;29;20043;-83
2023/09/27 07:56:12;;;;;;;5.03;3.53;;;;;;;24.07;57.47;101325.50;4898275;29;20059;-96
2023/09/27 07:59:03;;;;;;;6.35;3.30;;;;;;;24.25;56.15;101325.19;4924793;23;20052;31
2023/09/27 08:01:33;;;;;;;5.95;4.05;;;;;;;24.33;56.66;101327.00;4851661;24;19908;-96
2023/09/27 08:05:16;;;;;;;4.32;3.58;;;;;;;24.60;53.28;101324.53;4867602;29;20045;-96
2023/09/27 08:14:29;;;;;;;9.43;3.10;;;;;;;25.01;48.45;101317.97;4857812;29;20062;-94
2023/09/27 08:16:59;;;;;;;8.20;3.90;;;;;;;25.13;48.24;101319.88;4820529;24;20042;-96
2023/09/27 08:19:45;;;;;;;4.90;3.30;;;;;;;25.15;46.66;101314.72;4828859;29;20038;-95
2023/09/27 08:22:24;;;;;;;5.32;3.03;;;;;;;25.21;46.28;101314.09;4814088;29;20042;-96
2023/09/27 08:24:55;;;;;;;8.70;3.50;;;;;;;25.37;47.35;101321.66;4823323;29;20055;-95
2023/09/27 08:27:26;;;;;;;5.38;3.63;;;;;;;25.37;44.55;101310.47;4846374;23;20072;-96
2023/09/27 08:30:51;;;;;;;4.93;3.10;;;;;;;25.55;45.44;101315.69;4797797;29;20061;-96
2023/09/27 08:33:23;;;;;;;4.72;3.15;;;;;;;25.54;45.46;101308.44;4795373;29;20058;-95
2023/09/27 08:35:55;;;;;;;5.30;3.22;;;;;;;25.59;45.30;101308.16;4816145;29;20059;-95
2023/09/27 08:38:56;;;;;;;5.68;2.97;;;;;;;25.59;45.74;101308.16;4809091;29;20043;-96
2023/09/27 08:41:30;;;;;;;6.50;3.47;;;;;;;25.73;45.38;101316.06;4825739;24;20063;-96
2023/09/27 08:44:08;;;;;;;6.93;3.10;;;;;;;25.76;44.17;101309.75;4890423;29;20053;-93
2023/09/27 08:47:20;;;;;;;4.95;3.22;;;;;;;25.93;43.06;101310.47;4890143;29;20366;-96
2023/09/27 08:49:50;;;;;;;4.63;2.97;;;;;;;26.00;44.15;101319.84;4868786;29;20056;-95
2023/09/27 08:52:29;;;;;;;4.70;3.10;;;;;;;26.05;42.92;101315.13;4873285;29;20048;-96
2023/09/27 08:54:59;;;;;;;4.43;3.20;;;;;;;26.07;42.84;101315.56;4885835;29;20052;-94
2023/09/27 08:57:30;;;;;;;4.82;3.58;;;;;;;25.93;41.33;101308.50;4871662;29;20045;-96
2023/09/27 09:00:13;;;;;;;4.72;3.80;;;;;;;26.14;42.86;101308.13;4875335;29;20057;-77
2023/09/27 09:03:00;;;;;;;5.40;3.03;;;;;;;26.15;42.49;101303.34;4871462;24;20072;-96
2023/09/27 09:05:30;;;;;;;6.43;3.20;;;;;;;26.13;42.43;101312.13;4835063;29;20053;-95
2023/09/27 09:08:04;;;;;;;4.88;3.10;;;;;;;26.23;40.07;101307.91;4837455;29;20053;-96
2023/09/27 09:10:37;;;;;;;8.25;3.00;;;;;;;26.33;41.42;101308.50;4850437;29;20050;-96
2023/09/27 09:13:08;;;;;;;5.50;3.05;;;;;;;26.34;41.81;101307.31;4839364;29;20057;-96
2023/09/27 09:15:41;;;;;;;7.00;3.17;;;;;;;26.42;40.92;101311.88;4844242;29;20045;-92
2023/09/27 09:18:28;;;;;;;6.45;3.65;;;;;;;26.53;41.47;101317.69;4843735;29;20072;-96
2023/09/27 09:21:08;;;;;;;8.00;2.83;;;;;;;26.51;40.77;101308.84;4836381;29;20053;-90
2023/09/27 09:23:46;;;;;;;5.35;3.00;;;;;;;26.60;40.61;101317.00;4848749;29;20065;-93
2023/09/27 09:26:29;;;;;;;5.30;3.20;;;;;;;26.70;40.63;101308.78;4838410;29;20062;-95
2023/09/27 09:29:02;;;;;;;4.18;3.28;;;;;;;26.68;40.65;101310.31;4856119;29;20064;-92
2023/09/27 09:31:33;;;;;;;6.22;3.13;;;;;;;26.63;40.58;101314.25;4846003;29;20084;-92
2023/09/27 09:34:09;;;;;;;6.60;2.83;;;;;;;26.69;40.82;101309.16;4869253;29;20064;-96
2023/09/27 09:36:37;;;;;;;5.63;2.80;;;;;;;26.82;40.51;101313.41;4838060;29;20060;-93
2023/09/27 09:39:15;;;;;;;4.45;3.15;;;;;;;26.86;40.74;101304.22;4835911;29;20306;-92
2023/09/27 09:41:47;;;;;;;5.63;3.00;;;;;;;26.88;40.55;101310.28;4870816;29;20077;-96
2023/09/27 09:44:19;;;;;;;4.90;3.17;;;;;;;26.91;39.79;101309.53;4853087;29;20053;-88
2023/09/27 09:46:51;;;;;;;5.85;3.10;;;;;;;26.83;40.22;101298.16;4835020;29;20080;-96
2023/09/27 09:49:35;;;;;;;5.97;3.08;;;;;;;26.94;40.75;101303.19;4849679;29;20045;-96
2023/09/27 09:52:29;;;;;;;4.10;3.17;;;;;;;26.95;39.16;101300.00;4840255;29;20061;-91
2023/09/27 09:54:58;;;;;;;5.97;3.60;;;;;;;27.11;39.88;101304.66;4848385;29;20057;-93
2023/09/27 09:57:51;;;;;;;2.78;2.58;;;;;;;26.95;39.21;101293.56;4848639;29;20487;-92
2023/09/27 10:00:27;;;;;;;7.53;3.55;;;;;;;27.01;38.68;101299.66;4848206;29;20049;-91
2023/09/27 10:03:04;;;;;;;6.57;3.03;;;;;;;27.01;39.79;101300.50;4831223;29;20069;-95
2023/09/27 10:05:37;;;;;;;;;;;;;;;27.23;38.52;101295.22;4832634;29;20064;-96
2023/09/27 10:08:07;;;;;;;7.32;3.33;;;;;;;27.28;39.72;101294.91;4848058;29;19928;-92
2023/09/27 10:10:39;;;;;;;7.72;3.20;;;;;;;27.33;39.54;101290.94;4851212;29;20135;-93
2023/09/27 10:13:18;;;;;;;5.00;3.08;;;;;;;27.36;39.57;101293.81;4878644;24;20057;-92
2023/09/27 10:15:47;;;;;;;4.38;3.00;;;;;;;27.46;38.41;101288.72;4864744;29;20057;-89
2023/09/27 10:18:22;;;;;;;7.53;3.17;;;;;;;27.43;38.48;101283.84;4862651;29;20053;-92
2023/09/27 10:21:05;;;;;;;6.85;3.03;;;;;;;27.52;36.93;101292.84;4864683;29;20073;-96
2023/09/27 10:23:39;;;;;;;6.35;3.40;;;;;;;27.63;37.44;101276.91;4863678;29;20057;-96
2023/09/27 10:26:36;;;;;;;6.32;3.30;;;;;;;27.55;38.17;101275.19;4849640;29;20058;-94
2023/09/27 10:29:16;;;;;;;5.53;3.35;;;;;;;27.72;38.40;101278.66;4836838;29;20080;-95
2023/09/27 10:32:01;;;;;;;4.47;3.00;;;;;;;27.71;39.46;101272.22;4884699;24;20049;-92
2023/09/27 10:34:35;;;;;;;3.85;2.95;;;;;;;27.72;39.17;101273.81;4861381;29;20050;-96
2023/09/27 10:40:45;;;;;;;5.15;2.97;;;;;;;27.76;38.32;101279.53;4801284;29;20047;-92
2023/09/27 10:43:35;;;;;;;3.60;2.70;;;;;;;27.80;38.18;101279.56;4799381;29;20081;-96
2023/09/27 10:46:56;;;;;;;6.13;3.45;;;;;;;27.93;38.42;101278.09;4839978;29;20065;-96
2023/09/27 10:49:37;;;;;;;7.70;3.03;;;;;;;27.68;37.23;101278.63;4794595;29;20058;-89
2023/09/27 10:52:17;;;;;;;3.95;2.72;;;;;;;27.57;37.85;101263.56;4821053;29;20050;-90
2023/09/27 10:54:45;;;;;;;5.75;2.80;;;;;;;27.69;37.36;101270.97;4823810;29;20046;-87
2023/09/27 10:57:20;;;;;;;4.97;2.80;;;;;;;27.79;36.27;101272.28;4824264;29;20050;-95
2023/09/27 10:59:50;;;;;;;5.28;2.80;;;;;;;27.81;36.97;101258.69;4808611;29;20051;-88
2023/09/27 11:02:31;;;;;;;6.63;2.90;;;;;;;27.78;37.27;101263.06;4807573;29;20430;-91
2023/09/27 11:05:00;;;;;;;3.10;2.70;;;;;;;27.92;35.22;101270.03;4824037;29;20058;-92
2023/09/27 11:07:49;;;;;;;5.63;2.70;;;;;;;28.01;35.67;101259.31;4808185;29;20383;-91
2023/09/27 11:10:31;;;;;;;5.32;2.80;;;;;;;28.06;36.20;101252.53;4808069;29;20398;-94
2023/09/27 11:13:18;;;;;;;8.32;3.13;;;;;;;28.11;36.89;101255.78;4825453;29;20050;-88
2023/09/27 11:15:46;;;;;;;4.07;2.85;;;;;;;28.07;36.72;101263.41;4806771;29;20116;-93
2023/09/27 11:18:15;;;;;;;3.97;2.30;;;;;;;28.03;37.33;101248.47;4808932;29;20054;-92
2023/09/27 11:20:43;;;;;;;4.38;3.17;;;;;;;28.10;37.48;101239.31;4793317;29;20054;-90
2023/09/27 11:23:12;;;;;;;6.55;2.67;;;;;;;28.19;36.92;101245.44;4811134;29;20077;-90
2023/09/27 11:25:42;;;;;;;6.38;3.00;;;;;;;28.22;37.15;101241.88;4810084;29;20054;-88
2023/09/27 11:28:15;;;;;;;4.00;2.47;;;;;;;28.23;36.77;101234.22;4793571;29;20055;-92
2023/09/27 11:30:44;;;;;;;6.45;2.60;;;;;;;28.50;36.44;101232.06;4793342;29;20055;-93
2023/09/27 11:33:16;;;;;;;4.65;2.72;;;;;;;28.57;36.47;101225.69;4781595;29;20066;-93
2023/09/27 11:35:50;;;;;;;4.13;2.75;;;;;;;28.68;36.03;101231.41;4820053;29;20070;-89
2023/09/27 11:38:18;;;;;;;4.97;2.77;;;;;;;28.64;36.48;101214.50;4814714;29;20071;-92
2023/09/27 11:40:48;;;;;;;6.00;2.63;;;;;;;28.66;35.20;101206.47;4810755;29;20058;-88
2023/09/27 11:43:17;;;;;;;5.45;2.80;;;;;;;28.75;35.36;101205.31;4823424;29;20066;-96
2023/09/27 11:45:48;;;;;;;2.65;2.40;;;;;;;28.84;34.76;101198.16;4805137;29;20087;-90
2023/09/27 11:48:32;;;;;;;5.82;3.03;;;;;;;28.78;34.94;101196.09;4824221;29;20056;-93
2023/09/27 11:51:02;;;;;;;8.48;2.75;;;;;;;28.95;33.99;101184.19;4790488;29;20074;-87
2023/09/27 11:53:30;;;;;;;3.50;2.95;;;;;;;29.15;35.19;101185.88;4825593;29;20054;-94
2023/09/27 11:56:00;;;;;;;5.57;3.03;;;;;;;28.96;35.20;101199.88;4808611;29;20055;-92
2023/09/27 11:58:29;;;;;;;3.90;2.78;;;;;;;28.82;36.09;101180.84;4828119;29;20050;-93
2023/09/27 12:00:58;;;;;;;6.03;3.28;;;;;;;29.03;35.08;101189.84;4810072;29;20046;-87
2023/09/27 12:03:26;;;;;;;6.93;2.28;;;;;;;29.05;34.74;101187.44;4826497;29;20077;-94
2023/09/27 12:05:55;;;;;;;5.88;3.10;;;;;;;28.97;34.00;101186.59;4791688;29;20073;-96
2023/09/27 12:08:26;;;;;;;7.30;2.60;;;;;;;29.23;34.11;101181.91;4817205;29;20058;-90
2023/09/27 12:10:55;;;;;;;6.22;3.03;;;;;;;29.07;34.44;101170.94;4811036;29;20065;-91
2023/09/27 12:13:24;;;;;;;4.10;2.92;;;;;;;29.18;34.37;101177.44;4812065;29;20645;-89
2023/09/27 12:15:52;;;;;;;6.22;3.00;;;;;;;29.14;32.04;101182.28;4808700;29;20050;-86
2023/09/27 12:18:20;;;;;;;6.75;2.83;;;;;;;29.10;33.70;101172.97;4826122;29;20368;-94
2023/09/27 12:20:52;;;;;;;6.93;2.83;;;;;;;29.21;33.33;101173.84;4809099;29;20457;-90
2023/09/27 12:23:23;;;;;;;9.60;3.22;;;;;;;29.08;33.23;101169.75;4824337;29;20398;-89